Apostle Islands National Lak, Wisconsin
Current Conditions -  °F | °C
As of 3:53 AM on Tuesday 21 Oct 2014 (Local Time) from KASX Reporting Station
Overcast Overcast  
Wind Chill: 38°   Ceiling: 3200
Heat Index: 43°   Visibility: 10mi
Dew Point: 36°   Wind: 8mph
Humidity: 76%   Direction: 50°NE
Pressure: 30.19"   Gusts: NA
Location:  46.8614°N, 90.9101°W
Report Text: KASX 210853Z AUTO 05007KT 10SM SCT025 OVC032 06/02 A3019 RMK AO2 SLP230 T00610022 51007
Loading
Personal Weather Stations






























Interactive Weather Map New forecast layout! Learn more

10-Day Weather Forecast

Advertisements
Track Severe Weather on mobile